Pagrindinis puslapis
METAR-TAF:

METAR-TAF

Oro uostai :

Mardin, Turkija

platuma: 37-13-58N, ilguma: 40-38-26E, Aukštis: 527 m

Dabartinis oras

Ataskaita buvo paskelbta 3 valandos ir 42 minutes, ne 14:50 UTC
Vėjas 8 kt iš Vakarų/Pietvakarių, svyruoja nuo Pietvakarių ir Vakarų/Šiaurės Vakarų
Temperatūra 34°C
Drėgmė 23%
Slėgis 1006 hPa
Matomumas 10 km arba daugiau
nėra debesų žemiau 1500 m ir nėra kamuolinių lietaus debesų

METAR: LTCR 151450Z 25008KT 220V290 CAVOK 34/10 Q1006

Laikas: 21:32 (18:32 UTC)

Prognozė

Ataskaita buvo paskelbta 4 valandos ir 52 minutes, ne 13:40 UTC
Prognozė galioja nuo 15 metu 15 UTC su 15 metu 24 UTC
Vėjas 12 kt iš Pietų
Matomumas 10 km arba daugiau
nėra debesų žemiau 1500 m ir nėra kamuolinių lietaus debesų
Tapsmas
nuo 15 metu 16 UTC su 15 metu 19 UTC
Vėjas 2 kt nuo kintamojo kryptimis

TAF: LTCR 151340Z 1515/1524 17012KT CAVOK BECMG 1516/1519 VRB02KT

Orai ataskaitas ir orų prognozės (METAR, TAF).

turimą stotys yra geltonos ir raudonos taškus žemėlapyje.

Perkelti pele per norėdami pamatyti stoties vardą.

Tada spustelėkite, norėdami matyti oro stebėjimo ir prognozės.

Norėdami pakeisti žemėlapį: spustelėkite ant žalios mygtukų su juodo kryžiaus žemyn,; žalią mygtuką su brūkšneliu, jei norite nutolinti; arba žalių rodyklių gretimoms žemėlapius.


METAR-TAF: